Time;durP1;ratioP1;P1;durP2;ratioP2;P2;SDS_P1;SDS_P2;PMS_P1;PMS_P2;Temp;Humidity;BMP_temperature;BMP_pressure;BME280_temperature;BME280_humidity;BME280_pressure;Samples;Min_cycle;Max_cycle;Signal;HPM_P1;HPM_P2
2023/09/06 00:02:39;;;;;;;5.60;5.03;;;;;;;19.91;54.37;99121.91;7001361;28;20698;-83
2023/09/06 00:06:00;;;;;;;9.97;5.50;;;;;;;19.75;54.22;99105.56;7000590;28;20321;-83
2023/09/06 00:09:22;;;;;;;6.90;5.70;;;;;;;19.97;54.14;99112.66;7000557;28;20781;-83
2023/09/06 00:12:45;;;;;;;6.70;4.90;;;;;;;19.83;54.62;99114.16;7001132;28;20209;-83
2023/09/06 00:16:08;;;;;;;7.03;4.83;;;;;;;19.77;54.72;99109.72;6999669;28;20620;-83
2023/09/06 00:19:30;;;;;;;6.97;5.40;;;;;;;19.28;55.11;99044.28;6990506;28;20214;-84
2023/09/06 00:22:56;;;;;;;7.17;4.97;;;;;;;19.68;55.07;99116.69;6970984;28;20230;-83
2023/09/06 00:26:17;;;;;;;6.50;5.13;;;;;;;19.77;54.19;99103.41;6970797;28;20231;-83
2023/09/06 00:29:39;;;;;;;4.80;4.30;;;;;;;19.99;53.18;99110.47;6972004;28;20714;-84
2023/09/06 00:33:05;;;;;;;6.00;5.40;;;;;;;19.21;53.14;99016.31;6972054;28;20346;-84
2023/09/06 00:36:29;;;;;;;5.27;4.77;;;;;;;19.47;53.80;99101.16;6943751;28;20228;-84
2023/09/06 00:39:50;;;;;;;7.60;5.20;;;;;;;19.41;54.69;99101.31;6944043;28;20234;-84
2023/09/06 00:43:11;;;;;;;6.27;5.63;;;;;;;18.77;56.13;99115.69;6943508;28;20349;-85
2023/09/06 00:46:34;;;;;;;6.70;5.47;;;;;;;18.65;57.31;99113.06;6942244;28;20657;-84
2023/09/06 00:49:57;;;;;;;10.00;5.60;;;;;;;18.92;56.92;99110.47;6943267;28;20203;-84
2023/09/06 00:53:21;;;;;;;9.47;5.10;;;;;;;19.09;56.03;99108.50;6947259;28;20288;-84
2023/09/06 00:56:43;;;;;;;5.87;5.20;;;;;;;19.38;54.51;99099.09;6943392;28;20722;-83
2023/09/06 01:00:06;;;;;;;5.93;4.77;;;;;;;18.96;55.95;99095.19;6944776;28;20227;-84
2023/09/06 01:03:29;;;;;;;6.13;5.13;;;;;;;19.18;55.21;99113.31;6969518;28;20258;-84
2023/09/06 01:06:56;;;;;;;5.97;5.37;;;;;;;18.66;56.63;99109.25;6998700;28;20282;-84
2023/09/06 01:10:17;;;;;;;6.67;5.50;;;;;;;18.50;57.55;99101.03;6997930;28;20193;-85
2023/09/06 01:13:39;;;;;;;6.07;5.40;;;;;;;18.88;56.40;99118.31;6998193;28;20283;-84
2023/09/06 01:17:00;;;;;;;5.97;5.37;;;;;;;18.86;56.34;99109.53;6996967;28;20214;-84
2023/09/06 01:20:29;;;;;;;6.00;5.03;;;;;;;19.07;55.79;99114.25;6998009;28;20769;-85
2023/09/06 01:23:52;;;;;;;6.40;5.80;;;;;;;19.26;54.90;99117.53;6997774;28;20560;-84
2023/09/06 01:27:13;;;;;;;5.60;5.00;;;;;;;18.90;55.78;99123.53;6996800;28;20288;-84
2023/09/06 01:30:36;;;;;;;5.93;4.87;;;;;;;19.07;55.14;99116.13;6997889;28;20238;-85
2023/09/06 01:33:58;;;;;;;7.70;5.37;;;;;;;18.44;56.48;99123.88;6997911;28;20247;-84
2023/09/06 01:37:19;;;;;;;6.00;5.40;;;;;;;18.40;57.13;99107.16;6997811;28;20237;-85
2023/09/06 01:40:42;;;;;;;6.10;5.60;;;;;;;18.25;57.50;99108.78;6997129;28;20229;-84
2023/09/06 01:44:04;;;;;;;7.50;5.53;;;;;;;18.41;57.05;99110.75;6997249;28;20241;-84
2023/09/06 01:47:27;;;;;;;6.00;5.40;;;;;;;18.77;55.85;99108.34;6975762;28;20283;-84
2023/09/06 01:50:48;;;;;;;9.30;5.43;;;;;;;18.56;56.55;99091.84;6971040;28;20209;-84
2023/09/06 01:54:11;;;;;;;7.30;5.87;;;;;;;18.75;55.45;99107.75;6970477;28;20238;-84
2023/09/06 01:57:34;;;;;;;5.90;5.30;;;;;;;18.42;56.51;99104.19;6972777;28;20686;-84
2023/09/06 02:00:56;;;;;;;6.63;5.87;;;;;;;18.17;57.18;99106.47;6976508;28;20313;-84
2023/09/06 02:04:17;;;;;;;7.30;5.23;;;;;;;18.37;56.70;99113.13;6976341;28;20848;-84
2023/09/06 02:07:39;;;;;;;7.47;6.23;;;;;;;18.22;56.91;99099.19;6976513;28;20202;-84
2023/09/06 02:11:00;;;;;;;7.43;5.40;;;;;;;18.38;56.51;99098.41;6977425;28;20236;-84
2023/09/06 02:14:23;;;;;;;5.30;4.77;;;;;;;18.49;56.18;99097.50;6975242;28;20353;-84
2023/09/06 02:17:45;;;;;;;6.00;5.40;;;;;;;18.00;56.83;99037.41;6974467;28;20202;-84
2023/09/06 02:21:07;;;;;;;6.23;5.53;;;;;;;18.23;56.96;99102.75;6969305;28;20222;-84
2023/09/06 02:24:28;;;;;;;6.77;5.50;;;;;;;18.34;56.77;99101.88;6974447;28;20226;-84
2023/09/06 02:27:50;;;;;;;5.83;5.33;;;;;;;17.97;57.36;99095.16;6974651;28;20766;-83
2023/09/06 02:31:13;;;;;;;7.10;5.30;;;;;;;17.82;57.82;99106.63;6976011;28;20285;-84
2023/09/06 02:34:40;;;;;;;6.53;5.87;;;;;;;17.28;58.98;99074.44;6972272;28;20305;-84
2023/09/06 02:38:02;;;;;;;8.73;5.80;;;;;;;17.81;58.29;99104.97;6974663;28;20297;-84
2023/09/06 02:41:23;;;;;;;8.83;5.53;;;;;;;17.74;58.72;99106.22;6983558;28;20380;-84
2023/09/06 02:44:44;;;;;;;6.10;5.60;;;;;;;17.90;58.21;99103.53;7003532;28;20791;-83
2023/09/06 02:48:12;;;;;;;8.40;6.37;;;;;;;18.09;56.76;99099.50;7003551;28;20224;-83
2023/09/06 02:51:33;;;;;;;8.10;6.60;;;;;;;17.78;58.27;99099.19;7001837;28;20211;-83
2023/09/06 02:54:57;;;;;;;8.23;5.87;;;;;;;17.45;58.00;99112.72;6981646;28;20707;-83
2023/09/06 02:58:19;;;;;;;8.80;5.77;;;;;;;17.60;58.85;99113.00;6974237;28;20280;-83
2023/09/06 03:01:44;;;;;;;6.50;5.60;;;;;;;17.61;58.02;99071.03;6974018;28;20240;-83
2023/09/06 03:05:09;;;;;;;8.50;5.60;;;;;;;17.93;57.16;99108.47;6974604;28;20227;-82
2023/09/06 03:08:31;;;;;;;8.37;6.13;;;;;;;17.57;58.24;99099.88;6972630;28;20286;-83
2023/09/06 03:11:52;;;;;;;7.13;5.60;;;;;;;17.44;58.39;99086.50;7001462;28;20804;-83
2023/09/06 03:15:15;;;;;;;6.17;5.57;;;;;;;17.45;58.53;99101.81;7000952;28;20367;-83
2023/09/06 03:18:39;;;;;;;6.80;5.30;;;;;;;17.50;58.13;99113.63;7000711;28;20208;-84
2023/09/06 03:22:06;;;;;;;6.27;5.17;;;;;;;17.05;58.46;99043.72;7005679;28;20226;-83
2023/09/06 03:25:28;;;;;;;5.80;5.20;;;;;;;17.29;58.52;99094.34;6995840;28;20222;-83
2023/09/06 03:28:49;;;;;;;6.13;5.53;;;;;;;17.25;58.67;99096.72;6973441;28;20249;-83
2023/09/06 03:32:10;;;;;;;6.93;6.00;;;;;;;17.07;58.45;99068.81;6973455;28;20293;-84
2023/09/06 03:35:32;;;;;;;8.33;6.03;;;;;;;17.42;58.50;99105.00;6973246;28;20313;-83
2023/09/06 03:38:56;;;;;;;7.73;5.97;;;;;;;17.60;57.90;99096.66;6991839;28;20206;-83
2023/09/06 03:42:18;;;;;;;9.50;8.60;;;;;;;17.59;57.17;99084.09;7000067;28;20276;-83
2023/09/06 03:45:40;;;;;;;7.30;6.57;;;;;;;17.52;57.65;99103.31;6997196;28;20230;-83
2023/09/06 03:49:05;;;;;;;11.57;6.30;;;;;;;17.43;57.79;99109.38;6973298;28;20606;-83
2023/09/06 03:52:26;;;;;;;10.40;5.70;;;;;;;17.47;58.24;99105.13;6973318;28;20252;-83
2023/09/06 03:55:49;;;;;;;6.37;5.77;;;;;;;17.36;58.42;99111.41;6972454;28;20234;-83
2023/09/06 03:59:11;;;;;;;6.40;5.67;;;;;;;17.36;58.40;99103.22;6972810;28;20213;-83
2023/09/06 04:02:34;;;;;;;6.07;5.40;;;;;;;17.32;58.86;99105.59;6977431;28;20229;-84
2023/09/06 04:05:57;;;;;;;6.93;5.43;;;;;;;17.32;58.26;99110.22;6979660;28;20224;-83
2023/09/06 04:09:19;;;;;;;7.60;5.80;;;;;;;17.33;59.01;99107.25;7001079;28;20266;-82
2023/09/06 04:12:42;;;;;;;6.13;5.43;;;;;;;17.17;58.58;99083.47;7000041;28;20261;-83
2023/09/06 04:16:05;;;;;;;6.43;5.73;;;;;;;17.31;58.97;99100.38;6999576;28;20312;-83
2023/09/06 04:19:27;;;;;;;7.93;6.07;;;;;;;17.50;58.54;99110.06;6998200;28;20203;-83
2023/09/06 04:22:48;;;;;;;8.37;5.20;;;;;;;17.71;56.94;99107.53;7002927;28;20318;-83
2023/09/06 04:26:10;;;;;;;6.37;4.80;;;;;;;17.64;56.92;99122.38;6999172;28;20229;-83
2023/09/06 04:29:33;;;;;;;6.20;5.60;;;;;;;17.50;57.84;99116.38;7001959;28;20271;-83
2023/09/06 04:32:54;;;;;;;5.93;5.40;;;;;;;17.26;56.96;99060.22;7001496;28;20336;-84
2023/09/06 04:36:18;;;;;;;5.80;5.20;;;;;;;17.66;56.01;99106.59;6979867;28;20318;-84
2023/09/06 04:39:43;;;;;;;8.70;5.87;;;;;;;17.27;57.05;99116.38;6969415;28;20209;-84
2023/09/06 04:43:04;;;;;;;6.23;5.37;;;;;;;17.40;57.29;99121.59;6969618;28;20235;-84
2023/09/06 04:46:27;;;;;;;7.97;7.07;;;;;;;17.15;57.81;99129.22;6969875;28;20644;-84
2023/09/06 04:49:51;;;;;;;12.23;8.37;;;;;;;16.96;58.33;99135.88;6964817;28;20346;-84
2023/09/06 04:53:17;;;;;;;10.03;7.57;;;;;;;16.85;59.00;99133.97;6969864;28;20278;-84
2023/09/06 04:56:40;;;;;;;9.13;5.40;;;;;;;17.21;58.42;99136.44;6945554;28;20233;-84
2023/09/06 05:00:03;;;;;;;8.40;5.33;;;;;;;16.90;58.26;99095.13;6942795;28;20739;-83
2023/09/06 05:03:25;;;;;;;6.10;5.43;;;;;;;16.81;58.91;99132.78;6942362;28;20310;-84
2023/09/06 05:06:47;;;;;;;6.57;5.80;;;;;;;17.24;58.20;99129.66;6943724;28;20367;-83
2023/09/06 05:10:10;;;;;;;7.40;6.30;;;;;;;17.02;58.35;99139.53;6942740;28;20675;-83
2023/09/06 05:13:32;;;;;;;6.50;5.80;;;;;;;16.77;58.19;99055.38;6938810;28;21037;-82
2023/09/06 05:16:53;;;;;;;6.13;5.53;;;;;;;17.06;58.01;99125.22;6964038;28;20260;-83
2023/09/06 05:20:27;;;;;;;7.50;6.23;;;;;;;17.18;58.01;99134.19;6942442;28;20292;-83
2023/09/06 05:23:48;;;;;;;5.53;4.90;;;;;;;17.30;57.53;99129.56;6951499;28;20228;-83
2023/09/06 05:27:10;;;;;;;8.90;6.67;;;;;;;17.19;57.70;99132.28;6966971;28;20856;-84
2023/09/06 05:30:32;;;;;;;9.23;7.60;;;;;;;16.80;57.57;99043.97;6981330;28;20205;-83
2023/09/06 05:33:54;;;;;;;7.67;6.03;;;;;;;17.26;57.77;99120.19;6990373;28;20205;-83
2023/09/06 05:37:17;;;;;;;6.27;5.67;;;;;;;17.39;57.42;99143.66;6970262;28;20288;-83
2023/09/06 05:40:41;;;;;;;5.90;5.30;;;;;;;17.06;58.03;99111.59;6984491;28;20498;-84
2023/09/06 05:44:03;;;;;;;7.47;5.73;;;;;;;17.05;58.31;99106.38;6997979;28;20285;-82
2023/09/06 05:47:25;;;;;;;7.03;5.47;;;;;;;17.58;58.14;99137.78;6996228;28;20228;-82
2023/09/06 05:50:46;;;;;;;10.00;5.87;;;;;;;17.78;57.79;99143.66;6982715;28;20255;-83
2023/09/06 05:54:09;;;;;;;6.53;5.43;;;;;;;18.29;56.57;99088.94;6970606;28;20230;-82
2023/09/06 05:57:31;;;;;;;7.07;5.50;;;;;;;18.86;55.07;99149.72;6970490;28;20293;-83
2023/09/06 06:00:54;;;;;;;5.70;5.17;;;;;;;19.18;54.23;99142.53;6986843;28;20203;-83
2023/09/06 06:04:16;;;;;;;5.70;5.20;;;;;;;19.33;53.64;99153.72;6997687;28;20237;-83
2023/09/06 06:07:37;;;;;;;7.10;5.20;;;;;;;19.55;52.81;99146.34;6984443;28;20758;-83
2023/09/06 06:11:01;;;;;;;7.27;5.50;;;;;;;19.79;53.70;99148.56;6978420;28;20722;-84
2023/09/06 06:14:25;;;;;;;5.77;5.20;;;;;;;19.94;52.88;99148.72;6969919;28;20222;-84
2023/09/06 06:17:47;;;;;;;6.53;5.50;;;;;;;20.29;51.42;99154.63;6970743;28;20210;-83
2023/09/06 06:21:10;;;;;;;7.43;4.80;;;;;;;20.37;52.44;99154.16;6969452;28;20325;-85
2023/09/06 06:24:34;;;;;;;7.03;5.10;;;;;;;20.71;51.35;99155.59;6970172;28;20257;-84
2023/09/06 06:27:58;;;;;;;8.80;5.37;;;;;;;20.75;51.56;99151.22;6969677;28;20201;-84
2023/09/06 06:31:19;;;;;;;6.13;4.67;;;;;;;20.64;50.01;99042.59;6967534;28;20217;-87
2023/09/06 06:34:43;;;;;;;7.07;4.90;;;;;;;21.90;48.23;99155.50;6966737;28;20222;-85
2023/09/06 06:38:05;;;;;;;7.53;4.87;;;;;;;21.95;47.89;99124.50;6968061;28;20204;-86
2023/09/06 06:41:27;;;;;;;7.23;4.63;;;;;;;22.96;46.25;99159.28;6968541;28;20228;-85
2023/09/06 06:44:49;;;;;;;6.87;4.37;;;;;;;23.20;45.30;99155.69;6973494;28;20316;-86
2023/09/06 06:48:11;;;;;;;5.27;4.80;;;;;;;22.27;47.19;99086.66;6973431;28;20244;-86
2023/09/06 06:51:38;;;;;;;5.87;4.83;;;;;;;22.72;47.55;99150.75;6974118;28;20244;-86
2023/09/06 06:55:15;;;;;;;4.80;4.37;;;;;;;23.29;46.31;99143.00;6970754;28;21310;-86
2023/09/06 06:58:36;;;;;;;6.67;4.67;;;;;;;23.76;44.47;99134.31;6954882;28;20656;-86
2023/09/06 07:01:59;;;;;;;6.00;4.37;;;;;;;24.51;43.47;99139.41;6972750;28;20319;-86
2023/09/06 07:05:22;;;;;;;8.17;4.93;;;;;;;24.31;43.49;99148.66;6972800;28;20308;-87
2023/09/06 07:08:43;;;;;;;6.47;5.20;;;;;;;23.93;45.05;99148.59;6966088;28;20199;-86
2023/09/06 07:12:05;;;;;;;5.33;4.53;;;;;;;24.34;45.20;99155.53;6969319;28;20298;-85
2023/09/06 07:15:27;;;;;;;5.60;4.30;;;;;;;24.85;42.78;99162.34;6972190;28;20229;-86
2023/09/06 07:18:51;;;;;;;6.63;4.80;;;;;;;24.92;43.92;99160.91;6972530;28;20309;-86
2023/09/06 07:22:12;;;;;;;7.03;4.60;;;;;;;25.43;43.30;99156.56;6972325;28;20694;-86
2023/09/06 07:25:34;;;;;;;5.23;4.73;;;;;;;24.76;43.53;99164.06;6967652;28;20233;-86
2023/09/06 07:28:55;;;;;;;6.27;4.63;;;;;;;25.58;42.92;99161.09;6959429;28;20267;-86
2023/09/06 07:32:17;;;;;;;4.93;4.13;;;;;;;25.96;41.42;99152.66;6972504;28;20685;-86
2023/09/06 07:35:42;;;;;;;4.60;4.20;;;;;;;26.02;41.50;99151.47;6971270;28;20313;-85
2023/09/06 07:39:04;;;;;;;5.90;4.67;;;;;;;26.54;40.28;99154.06;6971465;28;20225;-87
2023/09/06 07:42:25;;;;;;;7.67;4.83;;;;;;;26.28;40.07;99096.63;6972143;28;20257;-87
2023/09/06 07:45:47;;;;;;;5.33;4.33;;;;;;;27.26;39.53;99144.31;6970835;28;20317;-86
2023/09/06 07:49:09;;;;;;;5.67;4.37;;;;;;;25.41;41.36;99156.03;6971602;28;20210;-86
2023/09/06 07:52:32;;;;;;;5.07;4.07;;;;;;;26.29;40.09;99157.19;6972225;28;20290;-86
2023/09/06 07:55:55;;;;;;;5.70;4.57;;;;;;;24.47;43.34;99161.22;6970687;28;20221;-86
2023/09/06 07:59:21;;;;;;;5.10;4.40;;;;;;;25.20;42.48;99151.81;6972794;28;20209;-86
2023/09/06 08:02:43;;;;;;;4.57;4.07;;;;;;;26.15;40.24;99152.69;6957787;28;20220;-87
2023/09/06 08:06:05;;;;;;;6.37;4.47;;;;;;;26.01;40.71;99152.59;6943158;28;20313;-87
2023/09/06 08:09:27;;;;;;;4.97;4.40;;;;;;;27.02;38.89;99158.25;6943841;28;20571;-88
2023/09/06 08:12:49;;;;;;;4.97;4.10;;;;;;;26.52;40.56;99164.59;6944312;28;20354;-87
2023/09/06 08:16:11;;;;;;;3.93;3.63;;;;;;;27.60;39.11;99147.53;6969001;28;20375;-87
2023/09/06 08:19:33;;;;;;;6.13;4.27;;;;;;;27.14;38.34;99157.78;6970605;28;20206;-87
2023/09/06 08:22:54;;;;;;;8.30;5.50;;;;;;;27.01;39.37;99158.56;6949135;28;20271;-87
2023/09/06 08:26:17;;;;;;;5.57;5.00;;;;;;;27.30;38.23;99167.50;6960148;28;20858;-88
2023/09/06 08:29:38;;;;;;;7.47;4.60;;;;;;;27.61;38.07;99161.06;6971179;28;20694;-87
2023/09/06 08:33:00;;;;;;;32.97;14.07;;;;;;;28.64;37.09;99160.25;6970873;28;20289;-87
2023/09/06 08:36:22;;;;;;;4.97;4.47;;;;;;;28.64;35.28;99160.25;6970195;28;20265;-88
2023/09/06 08:39:43;;;;;;;5.30;4.40;;;;;;;29.15;35.77;99153.19;6970618;28;20362;-84
2023/09/06 08:43:06;;;;;;;5.27;4.60;;;;;;;28.36;37.33;99153.13;6970634;28;20293;-85
2023/09/06 08:46:29;;;;;;;11.80;7.10;;;;;;;26.88;39.21;99154.63;6969903;28;20240;-85
2023/09/06 08:49:52;;;;;;;5.30;4.50;;;;;;;27.97;36.33;99162.03;6964227;28;20310;-86
2023/09/06 08:53:16;;;;;;;5.07;4.20;;;;;;;27.25;39.09;99170.34;6955362;28;20356;-84
2023/09/06 08:56:38;;;;;;;5.17;4.67;;;;;;;27.50;37.59;99114.47;6974995;28;20227;-84
2023/09/06 09:00:02;;;;;;;6.20;4.20;;;;;;;26.62;39.42;99127.66;6963840;28;20209;-84
2023/09/06 09:03:23;;;;;;;5.60;4.03;;;;;;;26.70;39.59;99110.38;6970310;28;20238;-84
2023/09/06 09:06:45;;;;;;;5.07;4.53;;;;;;;27.00;38.89;99093.22;6972186;28;20250;-84
2023/09/06 09:10:08;;;;;;;5.43;4.63;;;;;;;27.35;39.34;99170.16;6971110;28;20672;-85
2023/09/06 09:13:30;;;;;;;4.83;4.33;;;;;;;27.24;39.10;99168.72;6952843;28;20213;-85
2023/09/06 09:16:57;;;;;;;7.00;4.63;;;;;;;28.40;36.82;99170.81;6971457;28;20264;-82
2023/09/06 09:20:19;;;;;;;10.17;5.80;;;;;;;27.04;39.24;99169.03;6971820;28;20298;-87
2023/09/06 09:23:43;;;;;;;13.00;7.73;;;;;;;27.66;38.93;99162.94;6970890;28;20227;-88
2023/09/06 09:27:05;;;;;;;4.93;4.43;;;;;;;27.47;38.58;99164.94;6969608;28;20349;-86
2023/09/06 09:30:30;;;;;;;6.93;5.33;;;;;;;28.51;37.27;99145.31;6971080;28;20343;-85
2023/09/06 09:33:54;;;;;;;5.87;5.17;;;;;;;27.51;38.07;99127.19;6971324;28;20207;-85
2023/09/06 09:37:16;;;;;;;6.43;4.80;;;;;;;26.90;39.51;99098.97;6970508;28;20206;-88
2023/09/06 09:40:37;;;;;;;6.50;4.30;;;;;;;28.50;37.26;99140.06;6971704;28;20208;-83
2023/09/06 09:44:13;;;;;;;5.10;4.23;;;;;;;28.34;36.76;99134.03;6974369;28;20224;-84
2023/09/06 09:47:34;;;;;;;4.33;3.93;;;;;;;28.08;36.97;99126.59;6973173;28;20203;-85
2023/09/06 09:51:00;;;;;;;5.53;4.60;;;;;;;27.88;37.75;99135.31;6975955;28;20240;-85
2023/09/06 09:54:24;;;;;;;6.50;4.60;;;;;;;27.98;37.35;99130.41;6976500;28;20592;-86
2023/09/06 09:57:46;;;;;;;3.77;3.47;;;;;;;28.06;36.72;99142.69;6973656;28;20208;-83
2023/09/06 10:01:10;;;;;;;4.70;4.30;;;;;;;29.26;35.11;99137.84;6976239;28;20209;-84
2023/09/06 10:04:35;;;;;;;4.30;3.90;;;;;;;30.04;34.30;99137.06;6972858;28;20229;-83
2023/09/06 10:07:58;;;;;;;7.03;3.77;;;;;;;29.37;34.84;99127.31;6981938;28;20193;-83
2023/09/06 10:11:21;;;;;;;6.83;4.40;;;;;;;29.04;35.66;99139.84;6976022;28;20240;-83
2023/09/06 10:14:43;;;;;;;4.90;4.40;;;;;;;28.51;35.47;99127.81;6982882;28;20252;-85
2023/09/06 10:18:06;;;;;;;7.93;4.20;;;;;;;28.87;35.54;99137.75;6991388;28;20213;-84
2023/09/06 10:21:28;;;;;;;4.53;4.10;;;;;;;29.54;34.57;99131.00;6995075;28;20477;-84
2023/09/06 10:24:53;;;;;;;8.20;4.53;;;;;;;29.09;35.30;99131.41;6982036;28;20613;-83
2023/09/06 10:28:15;;;;;;;5.27;4.73;;;;;;;29.98;34.08;99136.41;6976317;28;20214;-83
2023/09/06 10:31:47;;;;;;;5.30;4.57;;;;;;;29.36;34.90;99128.44;6975259;28;20569;-83
2023/09/06 10:35:20;;;;;;;5.23;4.10;;;;;;;30.88;32.12;99129.97;6973054;28;20241;-82
2023/09/06 10:39:14;;;;;;;6.10;3.90;;;;;;;30.26;32.57;99125.84;6972508;28;20210;-83
2023/09/06 10:42:37;;;;;;;5.20;4.20;;;;;;;30.36;32.69;99120.78;6974164;28;20629;-84
2023/09/06 10:46:19;;;;;;;4.20;3.80;;;;;;;30.38;33.07;99115.69;6951422;28;20411;-83
2023/09/06 10:49:40;;;;;;;6.07;4.30;;;;;;;29.74;34.27;99122.09;6978346;28;20563;-84
2023/09/06 10:53:04;;;;;;;4.60;4.17;;;;;;;28.94;34.76;99090.94;6983952;28;20320;-84
2023/09/06 10:56:28;;;;;;;4.27;3.87;;;;;;;29.37;34.10;99049.53;6970888;28;20239;-87
2023/09/06 10:59:58;;;;;;;4.60;4.03;;;;;;;30.44;33.51;99092.13;6993407;28;20277;-82
2023/09/06 11:03:21;;;;;;;4.60;4.20;;;;;;;30.27;32.49;99108.00;6995879;28;20715;-84
2023/09/06 11:06:52;;;;;;;5.10;4.27;;;;;;;30.85;32.37;99100.00;6972817;28;20317;-85
2023/09/06 11:10:14;;;;;;;3.73;3.43;;;;;;;30.66;32.20;99041.88;6974290;28;20206;-86
2023/09/06 11:13:37;;;;;;;4.63;3.63;;;;;;;32.15;30.94;99047.81;6973970;28;20719;-87
2023/09/06 11:17:00;;;;;;;3.77;3.40;;;;;;;32.28;29.43;98982.56;6973278;28;20222;-86
2023/09/06 11:20:22;;;;;;;3.90;3.60;;;;;;;32.76;30.48;99081.34;6973666;28;20630;-82
2023/09/06 11:23:44;;;;;;;4.60;3.97;;;;;;;31.74;30.63;99087.63;6973152;28;20322;-86
2023/09/06 11:27:19;;;;;;;4.17;3.87;;;;;;;31.01;31.41;99062.13;6961094;28;20244;-85
2023/09/06 11:30:42;;;;;;;4.30;3.90;;;;;;;32.69;30.08;99074.63;6973152;28;20263;-84
2023/09/06 11:34:09;;;;;;;4.33;4.00;;;;;;;32.36;29.87;99063.44;6975426;28;20215;-83
2023/09/06 11:37:32;;;;;;;4.87;4.00;;;;;;;33.42;28.89;99037.38;6975163;28;20200;-83
2023/09/06 11:40:56;;;;;;;5.17;3.83;;;;;;;32.39;29.59;99067.50;6974996;28;20209;-84
2023/09/06 11:44:19;;;;;;;4.30;4.00;;;;;;;30.91;31.21;99071.63;6975100;28;20601;-82
2023/09/06 11:47:40;;;;;;;4.20;3.80;;;;;;;31.91;30.08;99062.41;6975668;28;20573;-85
2023/09/06 11:51:08;;;;;;;5.43;4.13;;;;;;;33.06;28.27;99026.94;6948486;28;20224;-82
2023/09/06 11:54:31;;;;;;;4.40;4.00;;;;;;;31.77;30.42;99039.53;6951777;28;20229;-82
2023/09/06 11:57:56;;;;;;;5.47;3.90;;;;;;;32.65;28.75;99051.34;6974818;28;20218;-83
2023/09/06 12:01:26;;;;;;;4.20;3.80;;;;;;;33.68;28.91;99055.47;6973935;28;20294;-83
2023/09/06 12:04:59;;;;;;;4.27;3.87;;;;;;;31.86;29.29;98992.91;6972917;28;20768;-83
2023/09/06 12:08:23;;;;;;;4.20;3.87;;;;;;;32.55;30.35;99024.66;6973118;28;20194;-82
2023/09/06 12:11:45;;;;;;;4.43;4.00;;;;;;;32.60;29.11;99043.19;6973608;28;20234;-82
2023/09/06 12:15:17;;;;;;;6.07;4.10;;;;;;;32.64;28.84;99021.78;6972845;28;20221;-84
2023/09/06 12:19:04;;;;;;;4.03;3.73;;;;;;;33.64;28.14;99037.72;6972528;28;20179;-84
2023/09/06 12:22:26;;;;;;;4.57;3.67;;;;;;;32.45;28.76;99022.31;6972006;28;20237;-83
2023/09/06 12:25:49;;;;;;;6.50;4.20;;;;;;;32.54;29.20;99030.59;6972941;28;20229;-82
2023/09/06 12:29:10;;;;;;;5.30;3.90;;;;;;;32.50;28.32;98952.28;6971928;28;20217;-83
2023/09/06 12:32:34;;;;;;;4.33;3.70;;;;;;;32.54;27.87;98893.78;6972640;28;20212;-83
2023/09/06 12:35:59;;;;;;;4.00;3.10;;;;;;;33.09;28.64;99028.22;6974092;28;20316;-83
2023/09/06 12:39:54;;;;;;;4.13;3.73;;;;;;;33.91;27.60;99019.44;6973323;28;20339;-84
2023/09/06 12:43:17;;;;;;;4.57;3.47;;;;;;;33.96;27.67;99017.19;6973393;28;20212;-82
2023/09/06 12:46:38;;;;;;;4.27;3.57;;;;;;;33.13;27.67;99010.41;6970032;28;20710;-84
2023/09/06 12:50:03;;;;;;;7.80;4.20;;;;;;;32.01;30.63;99006.22;6970773;28;20726;-88
2023/09/06 12:53:25;;;;;;;4.87;3.97;;;;;;;33.51;28.59;99008.16;6970809;28;20209;-85
2023/09/06 12:56:46;;;;;;;4.90;3.93;;;;;;;33.48;28.68;99008.03;6969538;28;20692;-83
2023/09/06 13:00:11;;;;;;;3.77;3.37;;;;;;;33.97;27.60;99012.44;6970906;28;20301;-87
2023/09/06 13:03:32;;;;;;;3.73;3.43;;;;;;;32.56;29.39;99003.16;6971316;28;20267;-87
2023/09/06 13:06:54;;;;;;;5.30;4.10;;;;;;;33.38;27.95;99008.50;6969273;28;20382;-87
2023/09/06 13:10:15;;;;;;;4.20;3.63;;;;;;;33.57;28.27;99000.31;6969773;28;20248;-88
2023/09/06 13:13:37;;;;;;;5.27;3.70;;;;;;;34.48;27.78;98998.41;6970656;28;20198;-87
2023/09/06 13:17:00;;;;;;;6.03;3.93;;;;;;;33.58;28.51;98991.59;6969187;28;20356;-87
2023/09/06 13:20:21;;;;;;;3.87;3.57;;;;;;;32.69;28.77;98988.88;6967563;28;20210;-85
2023/09/06 13:23:43;;;;;;;11.10;3.90;;;;;;;32.28;29.06;98938.72;6962054;28;20509;-90
2023/09/06 13:27:05;;;;;;;3.57;3.23;;;;;;;31.82;30.32;98988.31;6964036;28;20230;-84
2023/09/06 13:30:26;;;;;;;4.53;3.50;;;;;;;33.54;28.72;98978.66;6943160;28;20237;-84
2023/09/06 13:33:49;;;;;;;4.23;3.20;;;;;;;33.71;28.18;98981.19;6943433;28;20338;-86
2023/09/06 13:37:11;;;;;;;3.87;3.57;;;;;;;32.99;27.98;98983.94;6942083;28;20301;-85
2023/09/06 13:40:33;;;;;;;5.03;3.63;;;;;;;33.77;27.74;98977.84;6942576;28;20293;-86
2023/09/06 13:43:54;;;;;;;3.80;3.50;;;;;;;32.99;28.11;98984.78;6943134;28;20722;-86
2023/09/06 13:47:17;;;;;;;4.03;3.73;;;;;;;31.55;29.70;98974.88;6944249;28;20195;-86
2023/09/06 13:50:40;;;;;;;4.17;3.27;;;;;;;33.34;28.71;98972.03;6946546;28;20211;-83
2023/09/06 13:54:01;;;;;;;3.77;3.47;;;;;;;34.38;28.22;98964.50;6953840;28;20210;-86
2023/09/06 13:57:23;;;;;;;4.93;3.27;;;;;;;34.74;26.62;98967.94;6971232;28;20591;-85
2023/09/06 14:00:45;;;;;;;3.67;3.37;;;;;;;33.35;28.08;98962.47;6967824;28;20266;-86
2023/09/06 14:04:07;;;;;;;3.63;3.33;;;;;;;32.05;28.38;98881.63;6954247;28;20329;-86
2023/09/06 14:07:30;;;;;;;3.80;3.50;;;;;;;33.47;28.66;98956.88;6941117;28;20207;-86
2023/09/06 14:10:52;;;;;;;3.17;2.90;;;;;;;33.15;28.95;98946.63;6949658;28;20280;-85
2023/09/06 14:14:14;;;;;;;3.83;3.30;;;;;;;33.75;27.80;98951.34;6968947;28;20695;-86
2023/09/06 14:17:35;;;;;;;3.80;3.33;;;;;;;33.90;26.44;98931.88;6961093;28;20345;-86
2023/09/06 14:20:57;;;;;;;4.13;3.00;;;;;;;33.25;28.07;98918.16;6967320;28;20210;-87
2023/09/06 14:24:20;;;;;;;4.80;2.93;;;;;;;33.53;28.78;98951.84;6967963;28;20371;-86
2023/09/06 14:27:41;;;;;;;3.93;3.10;;;;;;;32.87;28.53;98933.66;6968110;28;20234;-85
2023/09/06 14:31:03;;;;;;;3.80;3.13;;;;;;;32.50;27.90;98887.25;6968808;28;20348;-87
2023/09/06 14:34:25;;;;;;;3.53;3.23;;;;;;;31.90;29.15;98938.03;6968770;28;20263;-86
2023/09/06 14:37:49;;;;;;;3.63;2.97;;;;;;;32.59;28.71;98904.72;6964585;28;20241;-87
2023/09/06 14:41:12;;;;;;;3.37;3.07;;;;;;;32.88;28.43;98929.69;6956317;28;20214;-87
2023/09/06 14:44:34;;;;;;;4.57;3.00;;;;;;;33.66;27.72;98937.50;6968145;28;20233;-86
2023/09/06 14:47:56;;;;;;;3.77;2.80;;;;;;;33.29;28.10;98927.53;6967443;28;20213;-86
2023/09/06 14:51:18;;;;;;;5.37;3.40;;;;;;;32.09;29.61;98930.03;6970344;28;20217;-86
2023/09/06 14:54:39;;;;;;;3.23;3.00;;;;;;;32.85;28.74;98924.81;6957053;28;20227;-85
2023/09/06 14:58:03;;;;;;;2.90;2.70;;;;;;;33.91;27.53;98930.69;6939232;28;20349;-86
2023/09/06 15:01:25;;;;;;;2.87;2.60;;;;;;;33.88;27.29;98944.56;6941478;28;20557;-86
2023/09/06 15:04:46;;;;;;;3.77;2.80;;;;;;;33.53;27.87;98932.25;6968238;28;20290;-86
2023/09/06 15:08:08;;;;;;;3.90;2.90;;;;;;;34.01;27.13;98937.78;6972192;28;20957;-87
2023/09/06 15:11:29;;;;;;;2.70;2.30;;;;;;;33.86;26.92;98935.72;6973551;28;20209;-85
2023/09/06 15:14:53;;;;;;;4.67;2.33;;;;;;;33.23;26.97;98934.50;6974537;28;20315;-83
2023/09/06 15:18:14;;;;;;;3.00;2.70;;;;;;;32.18;29.45;98933.53;6996358;28;20220;-83
2023/09/06 15:21:39;;;;;;;2.80;2.20;;;;;;;32.80;27.37;98937.03;6996938;28;20213;-83
2023/09/06 15:25:00;;;;;;;3.03;2.57;;;;;;;33.13;27.00;98914.59;6967792;28;20245;-86
2023/09/06 15:28:22;;;;;;;2.50;2.30;;;;;;;33.09;26.88;98919.25;6944340;28;20340;-87
2023/09/06 15:31:45;;;;;;;2.80;2.30;;;;;;;33.10;27.15;98907.72;6945962;28;20210;-84
2023/09/06 15:35:08;;;;;;;2.57;2.37;;;;;;;33.30;27.67;98912.38;6967095;28;20225;-86
2023/09/06 15:38:30;;;;;;;2.63;2.43;;;;;;;32.60;27.89;98850.50;6971350;28;20213;-87
2023/09/06 15:41:51;;;;;;;5.90;2.23;;;;;;;32.83;27.97;98921.56;6971520;28;20611;-86
2023/09/06 15:45:13;;;;;;;5.30;2.67;;;;;;;32.07;29.32;98910.00;6972464;28;20285;-85
2023/09/06 15:48:36;;;;;;;3.63;2.33;;;;;;;32.91;27.92;98910.25;6970940;28;20296;-87
2023/09/06 15:52:01;;;;;;;3.43;2.10;;;;;;;33.01;27.51;98897.81;6993912;28;20262;-85
2023/09/06 15:55:23;;;;;;;2.73;2.37;;;;;;;33.02;26.97;98910.63;6984537;28;20274;-87
2023/09/06 15:58:45;;;;;;;2.63;2.43;;;;;;;33.37;26.59;98915.41;6999835;28;20209;-87